Impacts METAR Board INFO
IDs:

KSLC - Salt Lake City Intl, UT, US

Updated at: 1512 UTC 21 Feb 2018
Potential Impact None Slight Moderate High
Time21/03Z 21/04Z 21/05Z 21/06Z 21/07Z 21/08Z 21/09Z 21/10Z 21/11Z 21/12Z 21/13Z 21/14Z 21/15Z
VIS 10 10 9
CIG -- 200 60
CoverSCTBKNBKN
FltCatVFRVFRVFR
WX-----SN
WDir130170150
WSpd 5 7 4
WGst -- -- --
Raw hourly METARs










KSLC 211254Z 13005KT 10SM SCT120 M08/M15 A3014 RMK AO2 SLP239 T10831150 $
KSLC 211354Z 17007KT 10SM FEW120 SCT150 BKN200 M07/M13 A3014 RMK AO2 SLP242 T10721133 $
KSLC 201454Z 15004KT 9SM -SN FEW030 BKN060 BKN075 M06/M09 A3001 RMK AO2 SNE07B47 SLP188 P0000 60001 T10611089 51021 $